Time;durP1;ratioP1;P1;durP2;ratioP2;P2;SDS_P1;SDS_P2;PMS_P1;PMS_P2;Temp;Humidity;BMP_temperature;BMP_pressure;BME280_temperature;BME280_humidity;BME280_pressure;Samples;Min_cycle;Max_cycle;Signal;HPM_P1;HPM_P2
2023/10/11 00:02:59;;;;;;;0.68;0.57;;;;;;;;;;5105367;27;20502;-77
2023/10/11 00:05:36;;;;;;;0.13;0.13;;;;;;;;;;5100649;27;20098;-77
2023/10/11 00:08:03;;;;;;;1.08;0.50;;;;;;;;;;5104865;27;20047;-77
2023/10/11 00:10:30;;;;;;;0.90;0.52;;;;;;;;;;5104145;27;20056;-75
2023/10/11 00:12:58;;;;;;;0.10;0.10;;;;;;;;;;5104608;27;20079;-76
2023/10/11 00:15:26;;;;;;;0.35;0.35;;;;;;;;;;5108867;27;20129;-77
2023/10/11 00:17:53;;;;;;;0.20;0.20;;;;;;;;;;5096544;27;20099;-76
2023/10/11 00:20:34;;;;;;;0.40;0.35;;;;;;;;;;5107709;27;20052;-77
2023/10/11 00:23:00;;;;;;;0.20;0.20;;;;;;;;;;5109268;27;20062;-76
2023/10/11 00:25:27;;;;;;;5.50;0.52;;;;;;;;;;5097734;27;20567;-76
2023/10/11 00:27:58;;;;;;;0.80;0.55;;;;;;;;;;5105741;27;20114;-75
2023/10/11 00:30:25;;;;;;;0.20;0.20;;;;;;;;;;5091187;27;20553;-77
2023/10/11 00:32:52;;;;;;;1.25;0.80;;;;;;;;;;5108791;27;20052;-77
2023/10/11 00:35:19;;;;;;;0.20;0.17;;;;;;;;;;5107606;27;20473;-77
2023/10/11 00:37:51;;;;;;;0.57;0.30;;;;;;;;;;5099641;27;20530;-77
2023/10/11 00:40:28;;;;;;;0.30;0.30;;;;;;;;;;5099316;27;20097;-77
2023/10/11 00:42:54;;;;;;;0.10;0.10;;;;;;;;;;5107759;27;20059;-77
2023/10/11 00:45:22;;;;;;;0.47;0.47;;;;;;;;;;5102253;27;20056;-77
2023/10/11 00:47:51;;;;;;;0.52;0.32;;;;;;;;;;5098726;27;20958;-76
2023/10/11 00:50:17;;;;;;;1.08;0.75;;;;;;;;;;5109266;27;20036;-77
2023/10/11 00:52:47;;;;;;;0.82;0.47;;;;;;;;;;5108544;27;20498;-75
2023/10/11 00:55:23;;;;;;;0.20;0.20;;;;;;;;;;5109977;27;20059;-77
2023/10/11 00:57:53;;;;;;;0.30;0.30;;;;;;;;;;5102454;27;20055;-77
2023/10/11 01:00:23;;;;;;;0.32;0.30;;;;;;;;;;5103872;27;20544;-77
2023/10/11 01:02:54;;;;;;;2.10;0.82;;;;;;;;;;5109298;27;20047;-77
2023/10/11 01:05:22;;;;;;;0.13;0.13;;;;;;;;;;5106714;27;20064;-77
2023/10/11 01:07:53;;;;;;;0.10;0.10;;;;;;;;;;5107723;27;21663;-77
2023/10/11 01:10:23;;;;;;;0.80;0.77;;;;;;;;;;5106198;27;20062;-76
2023/10/11 01:12:50;;;;;;;0.10;0.10;;;;;;;;;;5093823;27;20083;-77
2023/10/11 01:15:22;;;;;;;0.28;0.28;;;;;;;;;;5099171;27;20049;-75
2023/10/11 01:17:48;;;;;;;0.30;0.30;;;;;;;;;;5104293;27;20518;-77
2023/10/11 01:20:19;;;;;;;0.30;0.30;;;;;;;;;;5104475;27;20052;-77
2023/10/11 01:22:45;;;;;;;0.88;0.80;;;;;;;;;;5106048;27;20048;-77
2023/10/11 01:25:18;;;;;;;0.20;0.20;;;;;;;;;;5107070;27;20518;-76
2023/10/11 01:27:45;;;;;;;0.10;0.10;;;;;;;;;;5102351;27;20052;-75
2023/10/11 01:30:12;;;;;;;0.22;0.22;;;;;;;;;;5097206;27;20052;-77
2023/10/11 01:32:41;;;;;;;0.38;0.30;;;;;;;;;;5095544;27;20701;-77
2023/10/11 01:35:19;;;;;;;0.68;0.68;;;;;;;;;;5106119;27;20090;-77
2023/10/11 01:37:49;;;;;;;0.15;0.15;;;;;;;;;;5103720;27;20135;-77
2023/10/11 01:40:24;;;;;;;0.25;0.25;;;;;;;;;;5101739;27;20063;-77
2023/10/11 01:42:50;;;;;;;0.68;0.30;;;;;;;;;;5104925;27;20055;-77
2023/10/11 01:45:18;;;;;;;0.20;0.20;;;;;;;;;;5100051;27;20718;-76
2023/10/11 01:47:56;;;;;;;0.10;0.10;;;;;;;;;;5103826;27;20052;-76
2023/10/11 01:50:24;;;;;;;0.90;0.85;;;;;;;;;;5110213;27;20097;-75
2023/10/11 01:52:51;;;;;;;0.45;0.30;;;;;;;;;;5109709;27;20056;-77
2023/10/11 01:55:17;;;;;;;0.30;0.17;;;;;;;;;;5110881;27;20101;-75
2023/10/11 01:57:48;;;;;;;0.30;0.30;;;;;;;;;;5108387;27;20055;-76
2023/10/11 02:00:24;;;;;;;0.32;0.32;;;;;;;;;;5096306;27;20461;-77
2023/10/11 02:02:56;;;;;;;0.63;0.52;;;;;;;;;;5110390;27;20811;-77
2023/10/11 02:05:24;;;;;;;0.73;0.63;;;;;;;;;;5102681;27;20114;-76
2023/10/11 02:07:51;;;;;;;4.45;2.10;;;;;;;;;;5102705;27;20067;-76
2023/10/11 02:10:27;;;;;;;0.40;0.40;;;;;;;;;;5108381;27;20060;-77
2023/10/11 02:12:56;;;;;;;0.20;0.20;;;;;;;;;;5108475;27;20151;-77
2023/10/11 02:15:29;;;;;;;0.30;0.30;;;;;;;;;;5109968;27;20048;-76
2023/10/11 02:17:56;;;;;;;1.55;0.73;;;;;;;;;;5098818;27;20053;-77
2023/10/11 02:20:23;;;;;;;0.40;0.40;;;;;;;;;;5103064;27;20074;-76
2023/10/11 02:22:51;;;;;;;0.38;0.38;;;;;;;;;;5102769;27;20048;-77
2023/10/11 02:25:24;;;;;;;0.20;0.20;;;;;;;;;;5108224;27;20056;-76
2023/10/11 02:27:51;;;;;;;0.10;0.10;;;;;;;;;;5106439;27;20059;-77
2023/10/11 02:30:22;;;;;;;1.05;1.05;;;;;;;;;;5109730;27;20067;-76
2023/10/11 02:32:49;;;;;;;0.35;0.30;;;;;;;;;;5103002;27;20063;-76
2023/10/11 02:35:18;;;;;;;1.20;0.52;;;;;;;;;;5098808;27;20102;-76
2023/10/11 02:37:45;;;;;;;0.20;0.20;;;;;;;;;;5098770;27;20056;-76
2023/10/11 02:40:16;;;;;;;0.20;0.20;;;;;;;;;;5107983;27;20044;-76
2023/10/11 02:42:43;;;;;;;0.93;0.43;;;;;;;;;;5099620;28;20048;-76
2023/10/11 02:45:12;;;;;;;0.13;0.13;;;;;;;;;;5105704;27;20589;-76
2023/10/11 02:47:40;;;;;;;1.08;0.50;;;;;;;;;;5101822;27;20059;-76
2023/10/11 02:50:07;;;;;;;3.00;0.40;;;;;;;;;;5107995;27;20074;-77
2023/10/11 02:52:36;;;;;;;0.47;0.47;;;;;;;;;;5103635;28;20517;-76
2023/10/11 02:57:44;;;;;;;0.15;0.15;;;;;;;;;;5104413;27;20048;-76
2023/10/11 03:00:22;;;;;;;0.30;0.30;;;;;;;;;;5106801;27;20048;-76
2023/10/11 03:02:54;;;;;;;0.13;0.13;;;;;;;;;;5098131;27;20086;-76
2023/10/11 03:05:26;;;;;;;0.30;0.30;;;;;;;;;;5108404;27;20559;-76
2023/10/11 03:07:54;;;;;;;3.65;2.42;;;;;;;;;;5101714;27;20129;-76
2023/10/11 03:10:20;;;;;;;0.43;0.32;;;;;;;;;;5100901;27;20053;-76
2023/10/11 03:12:50;;;;;;;0.88;0.55;;;;;;;;;;5102531;27;20048;-76
2023/10/11 03:15:19;;;;;;;0.10;0.10;;;;;;;;;;5104774;27;20059;-76
2023/10/11 03:17:52;;;;;;;0.30;0.30;;;;;;;;;;5099404;27;20194;-76
2023/10/11 03:20:37;;;;;;;0.45;0.40;;;;;;;;;;5102203;27;20430;-76
2023/10/11 03:23:10;;;;;;;0.50;0.50;;;;;;;;;;5094403;27;20059;-76
2023/10/11 03:25:38;;;;;;;0.45;0.40;;;;;;;;;;5106658;27;20539;-76
2023/10/11 03:28:05;;;;;;;0.55;0.40;;;;;;;;;;5106174;27;20681;-77
2023/10/11 03:30:35;;;;;;;0.73;0.63;;;;;;;;;;5108455;27;20048;-76
2023/10/11 03:33:02;;;;;;;0.30;0.22;;;;;;;;;;5098817;27;20060;-76
2023/10/11 03:35:33;;;;;;;0.22;0.22;;;;;;;;;;5100189;27;20468;-76
2023/10/11 03:38:00;;;;;;;0.40;0.40;;;;;;;;;;5100692;27;20056;-76
2023/10/11 03:40:34;;;;;;;0.38;0.30;;;;;;;;;;5107050;27;20054;-76
2023/10/11 03:43:01;;;;;;;0.93;0.68;;;;;;;;;;5106554;27;20496;-76
2023/10/11 03:45:27;;;;;;;0.10;0.10;;;;;;;;;;5106580;27;20055;-76
2023/10/11 03:47:56;;;;;;;0.13;0.13;;;;;;;;;;5105803;27;20056;-76
2023/10/11 03:50:32;;;;;;;0.13;0.13;;;;;;;;;;5105495;27;22616;-76
2023/10/11 03:53:07;;;;;;;0.57;0.57;;;;;;;;;;5098003;27;20060;-76
2023/10/11 03:55:34;;;;;;;0.20;0.20;;;;;;;;;;5107068;27;20063;-76
2023/10/11 03:58:00;;;;;;;0.35;0.35;;;;;;;;;;5106313;27;20051;-77
2023/10/11 04:00:38;;;;;;;0.80;0.55;;;;;;;;;;5108750;27;20059;-76
2023/10/11 04:03:07;;;;;;;1.23;1.13;;;;;;;;;;5106279;27;20044;-77
2023/10/11 04:05:35;;;;;;;0.70;0.55;;;;;;;;;;5095373;27;20663;-75
2023/10/11 04:08:05;;;;;;;0.25;0.25;;;;;;;;;;5098884;27;20647;-76
2023/10/11 04:10:39;;;;;;;1.58;1.48;;;;;;;;;;5099942;27;20099;-75
2023/10/11 04:13:15;;;;;;;1.45;0.65;;;;;;;;;;5098197;27;20060;-76
2023/10/11 04:15:42;;;;;;;2.65;0.85;;;;;;;;;;5100357;27;20118;-76
2023/10/11 04:18:43;;;;;;;0.28;0.20;;;;;;;;;;5098814;27;20636;-76
2023/10/11 04:23:39;;;;;;;1.08;0.52;;;;;;;;;;5105172;27;20102;-76
2023/10/11 04:26:22;;;;;;;0.10;0.10;;;;;;;;;;5099015;27;20092;-77
2023/10/11 04:28:52;;;;;;;0.55;0.55;;;;;;;;;;5100572;27;20069;-76
2023/10/11 04:31:28;;;;;;;0.10;0.10;;;;;;;;;;5093440;27;20049;-76
2023/10/11 04:33:55;;;;;;;0.63;0.63;;;;;;;;;;5101835;27;20052;-76
2023/10/11 04:36:21;;;;;;;0.10;0.10;;;;;;;;;;5107704;27;20468;-75
2023/10/11 04:38:49;;;;;;;0.20;0.20;;;;;;;;;;5106803;27;20052;-76
2023/10/11 04:41:18;;;;;;;0.40;0.40;;;;;;;;;;5105590;27;20429;-76
2023/10/11 04:43:51;;;;;;;0.38;0.32;;;;;;;;;;5104437;27;20535;-76
2023/10/11 04:46:18;;;;;;;0.20;0.20;;;;;;;;;;5099289;27;20048;-76
2023/10/11 04:48:45;;;;;;;0.35;0.25;;;;;;;;;;5101049;27;20511;-76
2023/10/11 04:53:58;;;;;;;0.68;0.50;;;;;;;;;;5104863;27;20048;-76
2023/10/11 04:59:27;;;;;;;0.30;0.28;;;;;;;;;;5099577;27;20052;-76
2023/10/11 05:04:33;;;;;;;0.47;0.47;;;;;;;;;;5106894;27;20062;-76
2023/10/11 05:07:07;;;;;;;0.20;0.20;;;;;;;;;;5106421;27;20052;-76
2023/10/11 05:09:38;;;;;;;0.17;0.17;;;;;;;;;;5099505;27;20192;-75
2023/10/11 05:12:19;;;;;;;0.20;0.20;;;;;;;;;;5094892;27;20049;-76
2023/10/11 05:17:23;;;;;;;1.23;0.43;;;;;;;;;;5097683;27;20070;-76
2023/10/11 05:20:08;;;;;;;0.20;0.20;;;;;;;;;;5100007;27;20052;-76
2023/10/11 05:30:44;;;;;;;0.13;0.13;;;;;;;;;;5069622;27;20055;-76
2023/10/11 05:33:41;;;;;;;0.47;0.47;;;;;;;;;;5097587;27;20052;-76
2023/10/11 05:36:16;;;;;;;0.90;0.68;;;;;;;;;;5101421;27;20059;-76
2023/10/11 05:52:29;;;;;;;0.17;0.17;;;;;;;;;;5092624;27;20102;-75
2023/10/11 05:54:56;;;;;;;0.40;0.40;;;;;;;;;;5096433;27;20106;-76
2023/10/11 05:57:23;;;;;;;0.70;0.70;;;;;;;;;;5093359;27;20052;-76
2023/10/11 05:59:50;;;;;;;0.13;0.13;;;;;;;;;;5098668;27;20059;-76
2023/10/11 06:02:19;;;;;;;0.22;0.22;;;;;;;;;;5096734;27;20052;-77
2023/10/11 06:04:46;;;;;;;1.00;0.85;;;;;;;;;;5098869;27;20086;-76
2023/10/11 06:07:15;;;;;;;0.20;0.15;;;;;;;;;;5097515;27;20185;-76
2023/10/11 06:09:46;;;;;;;0.90;0.40;;;;;;;;;;5101469;27;20137;-76
2023/10/11 06:12:26;;;;;;;;;;;;;;;;;;5097582;27;20909;-75
2023/10/11 06:14:53;;;;;;;0.90;0.73;;;;;;;;;;5099256;27;46434;-75
2023/10/11 06:17:41;;;;;;;0.28;0.28;;;;;;;;;;5103229;27;20121;-76
2023/10/11 06:20:27;;;;;;;0.35;0.35;;;;;;;;;;5099877;27;20060;-75
2023/10/11 06:22:54;;;;;;;0.65;0.45;;;;;;;;;;5096749;27;20143;-76
2023/10/11 06:28:09;;;;;;;0.20;0.20;;;;;;;;;;5095014;27;20098;-76
2023/10/11 06:30:35;;;;;;;0.10;0.10;;;;;;;;;;5097938;27;20056;-76
2023/10/11 06:33:06;;;;;;;0.15;0.15;;;;;;;;;;5092456;27;20056;-76
2023/10/11 06:35:43;;;;;;;0.10;0.10;;;;;;;;;;5094327;27;21582;-76
2023/10/11 06:38:12;;;;;;;3.42;1.20;;;;;;;;;;5098981;27;20665;-76
2023/10/11 06:40:39;;;;;;;0.63;0.57;;;;;;;;;;5101189;27;20052;-77
2023/10/11 06:43:07;;;;;;;0.17;0.17;;;;;;;;;;5099565;27;20059;-77
2023/10/11 06:45:33;;;;;;;1.58;0.80;;;;;;;;;;5095920;27;20503;-78
2023/10/11 06:48:09;;;;;;;1.00;0.45;;;;;;;;;;5103403;27;20048;-77
2023/10/11 06:50:36;;;;;;;0.45;0.43;;;;;;;;;;5102497;28;20110;-78
2023/10/11 06:53:09;;;;;;;0.45;0.35;;;;;;;;;;5103574;28;20246;-77
2023/10/11 06:55:36;;;;;;;0.40;0.40;;;;;;;;;;5107604;28;20330;-77
2023/10/11 06:58:09;;;;;;;0.10;0.10;;;;;;;;;;5101772;27;20048;-77
2023/10/11 07:00:45;;;;;;;0.10;0.10;;;;;;;;;;5105088;28;20137;-78
2023/10/11 07:05:49;;;;;;;0.30;0.30;;;;;;;;;;5104715;28;20056;-77
2023/10/11 07:08:20;;;;;;;0.22;0.22;;;;;;;;;;5101790;27;20058;-78
2023/10/11 07:16:27;;;;;;;0.40;0.40;;;;;;;;;;5104828;27;20063;-77
2023/10/11 07:18:56;;;;;;;0.20;0.20;;;;;;;;;;5101323;27;20044;-78
2023/10/11 07:21:26;;;;;;;0.32;0.30;;;;;;;;;;5091725;27;20785;-77
2023/10/11 07:26:23;;;;;;;0.10;0.10;;;;;;;;;;5099648;27;20063;-77
2023/10/11 07:28:53;;;;;;;;;;;;;;;;;;5105194;27;20052;-76
2023/10/11 07:31:20;;;;;;;0.57;0.57;;;;;;;;;;5103030;27;48107;-77
2023/10/11 07:33:55;;;;;;;0.10;0.10;;;;;;;;;;5098142;27;20095;-76
2023/10/11 07:36:22;;;;;;;1.45;1.30;;;;;;;;;;5101070;27;20052;-78
2023/10/11 07:38:54;;;;;;;0.57;0.40;;;;;;;;;;5099277;27;20655;-76
2023/10/11 07:41:22;;;;;;;0.40;0.40;;;;;;;;;;5103327;27;21040;-76
2023/10/11 07:43:48;;;;;;;0.28;0.28;;;;;;;;;;5102626;27;20263;-77
2023/10/11 07:46:14;;;;;;;1.15;0.68;;;;;;;;;;5101244;27;20062;-76
2023/10/11 07:48:41;;;;;;;0.17;0.17;;;;;;;;;;5101482;27;20106;-76
2023/10/11 07:51:10;;;;;;;0.73;0.70;;;;;;;;;;5093757;27;20636;-76
2023/10/11 07:53:41;;;;;;;0.13;0.13;;;;;;;;;;5102992;27;20052;-78
2023/10/11 07:56:08;;;;;;;;;;;;;;;;;;5104691;27;20051;-76
2023/10/11 07:58:45;;;;;;;0.10;0.10;;;;;;;;;;5099440;27;47973;-76
2023/10/11 08:04:29;;;;;;;0.73;0.68;;;;;;;;;;5079375;28;20063;-78
2023/10/11 08:07:06;;;;;;;1.55;0.88;;;;;;;;;;5098114;27;20044;-78
2023/10/11 08:09:45;;;;;;;0.25;0.25;;;;;;;;;;5104304;27;20052;-77
2023/10/11 08:12:14;;;;;;;0.13;0.13;;;;;;;;;;5092965;27;20048;-77
2023/10/11 08:14:45;;;;;;;0.70;0.50;;;;;;;;;;5094350;27;20569;-77
2023/10/11 08:17:15;;;;;;;1.25;1.20;;;;;;;;;;5092705;27;20573;-78
2023/10/11 08:19:45;;;;;;;0.95;0.75;;;;;;;;;;5105603;27;20521;-77
2023/10/11 08:22:15;;;;;;;0.70;0.70;;;;;;;;;;5105040;27;20064;-78
2023/10/11 08:24:56;;;;;;;0.52;0.52;;;;;;;;;;5102766;27;20570;-78
2023/10/11 08:27:27;;;;;;;0.88;0.77;;;;;;;;;;5097667;27;20529;-78
2023/10/11 08:30:07;;;;;;;1.60;1.33;;;;;;;;;;5102903;27;20055;-77
2023/10/11 08:32:38;;;;;;;1.55;1.17;;;;;;;;;;5104112;27;20052;-77
2023/10/11 08:35:04;;;;;;;;;;;;;;;;;;5100601;27;20056;-77
2023/10/11 08:37:32;;;;;;;0.70;0.57;;;;;;;;;;5094302;28;45289;-77
2023/10/11 08:39:58;;;;;;;1.00;0.63;;;;;;;;;;5098891;27;20117;-77
2023/10/11 08:42:30;;;;;;;0.70;0.70;;;;;;;;;;5099285;28;20057;-77
2023/10/11 08:45:01;;;;;;;1.23;1.13;;;;;;;;;;5098626;28;20052;-77
2023/10/11 08:47:29;;;;;;;0.30;0.30;;;;;;;;;;5101263;27;20832;-77
2023/10/11 08:49:56;;;;;;;1.08;0.60;;;;;;;;;;5098342;28;20055;-78
2023/10/11 08:52:24;;;;;;;2.90;2.20;;;;;;;;;;5104675;28;20056;-77
2023/10/11 08:54:51;;;;;;;0.35;0.35;;;;;;;;;;5097774;28;22715;-78
2023/10/11 08:57:25;;;;;;;0.25;0.17;;;;;;;;;;5101863;27;21042;-76
2023/10/11 08:59:57;;;;;;;0.65;0.57;;;;;;;;;;5097587;28;20052;-76
2023/10/11 09:02:28;;;;;;;0.57;0.43;;;;;;;;;;5105036;27;20062;-76
2023/10/11 09:05:24;;;;;;;0.35;0.35;;;;;;;;;;5100631;27;20540;-76
2023/10/11 09:07:55;;;;;;;1.40;0.95;;;;;;;;;;5102377;27;20383;-76
2023/10/11 09:10:28;;;;;;;1.40;0.75;;;;;;;;;;5101968;27;20055;-78
2023/10/11 09:12:58;;;;;;;2.25;0.90;;;;;;;;;;5090514;27;20167;-77
2023/10/11 09:15:43;;;;;;;1.50;1.10;;;;;;;;;;5099784;27;20087;-77
2023/10/11 09:18:15;;;;;;;1.63;1.10;;;;;;;;;;5103484;27;20110;-77
2023/10/11 09:23:34;;;;;;;0.75;0.40;;;;;;;;;;5099130;27;20052;-77
2023/10/11 09:26:01;;;;;;;0.40;0.40;;;;;;;;;;5103111;28;20151;-77
2023/10/11 09:28:28;;;;;;;1.15;1.05;;;;;;;;;;5092511;27;20591;-77
2023/10/11 09:31:09;;;;;;;0.75;0.50;;;;;;;;;;5104191;28;20138;-77
2023/10/11 09:33:53;;;;;;;3.00;1.45;;;;;;;;;;5100806;28;20593;-77
2023/10/11 09:36:21;;;;;;;0.88;0.80;;;;;;;;;;5100070;28;20101;-77
2023/10/11 09:38:54;;;;;;;0.47;0.40;;;;;;;;;;5105152;28;20577;-77
2023/10/11 09:41:40;;;;;;;0.55;0.52;;;;;;;;;;5100533;28;20044;-76
2023/10/11 09:44:07;;;;;;;0.80;0.80;;;;;;;;;;5102446;28;20067;-77
2023/10/11 09:46:34;;;;;;;0.30;0.30;;;;;;;;;;5106819;27;20063;-77
2023/10/11 09:49:02;;;;;;;1.08;0.73;;;;;;;;;;5105024;28;20048;-77
2023/10/11 09:51:29;;;;;;;1.85;1.15;;;;;;;;;;5105074;28;20506;-77
2023/10/11 09:54:01;;;;;;;1.02;0.77;;;;;;;;;;5103675;28;20052;-77
2023/10/11 09:56:40;;;;;;;0.38;0.38;;;;;;;;;;5103481;28;20143;-74
2023/10/11 09:59:22;;;;;;;0.75;0.55;;;;;;;;;;5105568;28;20498;-77
2023/10/11 10:01:55;;;;;;;1.35;0.75;;;;;;;;;;5107088;28;20082;-78
2023/10/11 10:04:42;;;;;;;2.45;1.38;;;;;;;;;;5099050;28;20067;-76
2023/10/11 10:07:12;;;;;;;0.77;0.60;;;;;;;;;;5103232;28;20118;-77
2023/10/11 10:09:52;;;;;;;0.30;0.30;;;;;;;;;;5097615;27;20048;-77
2023/10/11 10:12:22;;;;;;;0.52;0.45;;;;;;;;;;5103683;27;20508;-76
2023/10/11 10:15:00;;;;;;;2.42;1.40;;;;;;;;;;5102856;27;20052;-78
2023/10/11 10:17:29;;;;;;;0.28;0.28;;;;;;;;;;5104349;28;20051;-76
2023/10/11 10:20:00;;;;;;;0.25;0.25;;;;;;;;;;5108164;27;20101;-76
2023/10/11 10:22:32;;;;;;;0.55;0.55;;;;;;;;;;5101090;28;20591;-77
2023/10/11 10:25:18;;;;;;;0.43;0.43;;;;;;;;;;5107234;28;20114;-76
2023/10/11 10:27:46;;;;;;;1.77;0.85;;;;;;;;;;5106406;27;20101;-76
2023/10/11 10:30:21;;;;;;;1.00;0.88;;;;;;;;;;5109854;28;20593;-77
2023/10/11 10:33:07;;;;;;;0.88;0.60;;;;;;;;;;5104991;27;20055;-76
2023/10/11 10:35:36;;;;;;;0.32;0.32;;;;;;;;;;5104569;28;20123;-77
2023/10/11 10:38:06;;;;;;;1.75;1.10;;;;;;;;;;5107904;27;20924;-76
2023/10/11 10:40:37;;;;;;;0.20;0.20;;;;;;;;;;5109907;28;20056;-77
2023/10/11 10:43:14;;;;;;;0.20;0.20;;;;;;;;;;5099668;28;20126;-77
2023/10/11 10:45:40;;;;;;;1.15;0.70;;;;;;;;;;5108152;28;20044;-77
2023/10/11 10:48:14;;;;;;;0.73;0.47;;;;;;;;;;5102534;27;20521;-77
2023/10/11 10:50:51;;;;;;;0.55;0.40;;;;;;;;;;5108716;28;20429;-77
2023/10/11 10:53:20;;;;;;;2.33;1.10;;;;;;;;;;5109144;27;20055;-78
2023/10/11 10:55:47;;;;;;;7.40;1.63;;;;;;;;;;5109224;28;20139;-78
2023/10/11 10:58:17;;;;;;;0.43;0.38;;;;;;;;;;5108238;28;20052;-77
2023/10/11 11:00:44;;;;;;;1.30;0.80;;;;;;;;;;5102853;28;20051;-78
2023/10/11 11:03:17;;;;;;;1.52;0.73;;;;;;;;;;5109218;28;20598;-77
2023/10/11 11:05:57;;;;;;;1.70;1.08;;;;;;;;;;5103426;28;20587;-77
2023/10/11 11:08:27;;;;;;;0.57;0.28;;;;;;;;;;5107345;28;20055;-77
2023/10/11 11:10:59;;;;;;;0.43;0.30;;;;;;;;;;5107612;28;20513;-77
2023/10/11 11:13:29;;;;;;;1.00;0.70;;;;;;;;;;5106811;28;20079;-77
2023/10/11 11:15:56;;;;;;;1.27;0.65;;;;;;;;;;5106653;28;20497;-78
2023/10/11 11:18:31;;;;;;;0.52;0.43;;;;;;;;;;5105255;27;20681;-77
2023/10/11 11:21:00;;;;;;;2.45;0.60;;;;;;;;;;5110872;27;20063;-76
2023/10/11 11:23:27;;;;;;;0.30;0.30;;;;;;;;;;5105830;28;20142;-77
2023/10/11 11:25:54;;;;;;;0.30;0.22;;;;;;;;;;5108165;28;20570;-76
2023/10/11 11:28:24;;;;;;;1.20;0.85;;;;;;;;;;5108097;28;20056;-76
2023/10/11 11:30:51;;;;;;;0.57;0.40;;;;;;;;;;5106708;27;21227;-76
2023/10/11 11:33:36;;;;;;;0.20;0.20;;;;;;;;;;5097747;28;20052;-76
2023/10/11 11:36:10;;;;;;;0.38;0.30;;;;;;;;;;5105224;27;20109;-76
2023/10/11 11:38:45;;;;;;;1.05;0.55;;;;;;;;;;5100124;28;20080;-77
2023/10/11 11:41:16;;;;;;;3.60;0.77;;;;;;;;;;5105338;27;20498;-77
2023/10/11 11:43:54;;;;;;;0.45;0.40;;;;;;;;;;5105927;27;20129;-77
2023/10/11 11:46:20;;;;;;;0.30;0.30;;;;;;;;;;5102151;28;20059;-76
2023/10/11 11:48:46;;;;;;;1.30;0.98;;;;;;;;;;5109523;28;20056;-77
2023/10/11 11:51:16;;;;;;;1.42;0.38;;;;;;;;;;5109468;28;20056;-77
2023/10/11 11:53:43;;;;;;;2.00;0.40;;;;;;;;;;5107575;28;20056;-77
2023/10/11 11:56:11;;;;;;;0.93;0.60;;;;;;;;;;5104180;27;21069;-77
2023/10/11 11:58:44;;;;;;;0.45;0.32;;;;;;;;;;5108767;27;20147;-76
2023/10/11 12:01:19;;;;;;;0.38;0.30;;;;;;;;;;5110589;28;20051;-76
2023/10/11 12:03:53;;;;;;;0.60;0.50;;;;;;;;;;5109592;28;20056;-77
2023/10/11 12:06:24;;;;;;;1.02;0.73;;;;;;;;;;5105585;27;20510;-76
2023/10/11 12:08:57;;;;;;;0.57;0.52;;;;;;;;;;5102878;27;20064;-77
2023/10/11 12:11:28;;;;;;;1.02;0.55;;;;;;;;;;5108294;27;20146;-76
2023/10/11 12:14:00;;;;;;;0.38;0.30;;;;;;;;;;5104077;28;20046;-76
2023/10/11 12:16:28;;;;;;;0.30;0.30;;;;;;;;;;5107425;28;20052;-76
2023/10/11 12:18:59;;;;;;;0.30;0.30;;;;;;;;;;5096527;28;20057;-73
2023/10/11 12:21:36;;;;;;;0.10;0.10;;;;;;;;;;5088614;28;20143;-76
2023/10/11 12:24:14;;;;;;;0.90;0.60;;;;;;;;;;5185402;22;20542;-73
2023/10/11 12:27:00;;;;;;;0.10;0.10;;;;;;;;;;5130299;27;20508;-72
2023/10/11 12:29:27;;;;;;;0.25;0.25;;;;;;;;;;5124301;27;20082;-73
2023/10/11 12:32:07;;;;;;;0.43;0.32;;;;;;;;;;5116234;27;20051;-72
2023/10/11 12:34:37;;;;;;;0.53;0.43;;;;;;;;;;5124776;27;20040;-73
2023/10/11 12:37:05;;;;;;;1.40;0.82;;;;;;;;;;5118757;27;20047;-74
2023/10/11 12:39:35;;;;;;;0.20;0.20;;;;;;;;;;5127181;27;20521;-73
2023/10/11 12:42:05;;;;;;;0.63;0.50;;;;;;;;;;5137325;27;20131;-73
2023/10/11 12:44:34;;;;;;;0.20;0.20;;;;;;;;;;5129328;27;20530;-73
2023/10/11 12:47:02;;;;;;;1.65;1.23;;;;;;;;;;5113972;27;20137;-73
2023/10/11 12:49:32;;;;;;;1.37;1.03;;;;;;;;;;5124742;27;20122;-74
2023/10/11 12:52:05;;;;;;;;;;;;;;;;;;5126347;27;20289;-73
2023/10/11 12:54:32;;;;;;;0.47;0.40;;;;;;;;;;5146026;27;45718;-73
2023/10/11 12:57:01;;;;;;;0.98;0.68;;;;;;;;;;5141985;27;20051;-73
2023/10/11 12:59:28;;;;;;;0.45;0.40;;;;;;;;;;5125205;27;20104;-73
2023/10/11 13:01:57;;;;;;;0.20;0.20;;;;;;;;;;5136994;27;20056;-73
2023/10/11 13:04:24;;;;;;;1.02;0.88;;;;;;;;;;5135284;27;20055;-73
2023/10/11 13:06:51;;;;;;;0.55;0.47;;;;;;;;;;5128195;27;20052;-73
2023/10/11 13:09:23;;;;;;;0.30;0.30;;;;;;;;;;5125099;27;20047;-73
2023/10/11 13:11:56;;;;;;;0.25;0.25;;;;;;;;;;5126124;27;20055;-73
2023/10/11 13:14:26;;;;;;;0.50;0.50;;;;;;;;;;5128010;27;20864;-73
2023/10/11 13:17:08;;;;;;;0.50;0.35;;;;;;;;;;5123486;27;20051;-73
2023/10/11 13:19:36;;;;;;;0.85;0.47;;;;;;;;;;5107068;27;21572;-73
2023/10/11 13:22:09;;;;;;;0.80;0.38;;;;;;;;;;5108023;27;20054;-73
2023/10/11 13:24:38;;;;;;;3.58;0.68;;;;;;;;;;5119111;27;20497;-73
2023/10/11 13:27:09;;;;;;;1.38;0.57;;;;;;;;;;5103796;27;20074;-73
2023/10/11 13:29:37;;;;;;;4.05;2.97;;;;;;;;;;5119655;27;20052;-73
2023/10/11 13:32:07;;;;;;;1.00;0.45;;;;;;;;;;5118793;27;20429;-73
2023/10/11 13:34:35;;;;;;;0.75;0.70;;;;;;;;;;5148535;27;20464;-73
2023/10/11 13:37:04;;;;;;;2.47;0.93;;;;;;;;;;5132033;27;20062;-73
2023/10/11 13:39:45;;;;;;;0.85;0.63;;;;;;;;;;5097927;27;20084;-72
2023/10/11 13:42:28;;;;;;;0.30;0.30;;;;;;;;;;5133267;27;20047;-73
2023/10/11 13:44:59;;;;;;;0.52;0.50;;;;;;;;;;5120408;27;20063;-73
2023/10/11 13:47:51;;;;;;;0.32;0.30;;;;;;;;;;5135418;27;20056;-72
2023/10/11 13:50:35;;;;;;;0.57;0.40;;;;;;;;;;5132929;27;20055;-73
2023/10/11 13:53:04;;;;;;;0.38;0.30;;;;;;;;;;5139166;27;20073;-73
2023/10/11 13:55:39;;;;;;;0.90;0.65;;;;;;;;;;5130338;27;20130;-73
2023/10/11 13:58:11;;;;;;;0.30;0.20;;;;;;;;;;5146158;27;20580;-73
2023/10/11 14:05:44;;;;;;;0.10;0.10;;;;;;;;;;5136649;27;20062;-73
2023/10/11 14:08:43;;;;;;;0.52;0.43;;;;;;;;;;5134554;27;20051;-72
2023/10/11 14:11:00;;;;;;;0.38;0.30;;;;;;;;;;5133643;27;20059;-73
2023/10/11 14:13:27;;;;;;;0.73;0.50;;;;;;;;;;5121310;27;20055;-73
2023/10/11 14:15:57;;;;;;;0.30;0.30;;;;;;;;;;5120509;27;20582;-74
2023/10/11 14:18:27;;;;;;;0.77;0.47;;;;;;;;;;5128219;27;20056;-75
2023/10/11 14:20:56;;;;;;;2.58;1.08;;;;;;;;;;5129929;27;20052;-75
2023/10/11 14:23:27;;;;;;;1.15;0.40;;;;;;;;;;5113541;27;20048;-74
2023/10/11 14:25:57;;;;;;;0.40;0.40;;;;;;;;;;5132806;27;20055;-74
2023/10/11 14:28:24;;;;;;;0.73;0.40;;;;;;;;;;5127498;27;20060;-73
2023/10/11 14:30:51;;;;;;;0.98;0.52;;;;;;;;;;5131682;27;20055;-74
2023/10/11 14:33:20;;;;;;;1.02;0.82;;;;;;;;;;5111559;27;20066;-74
2023/10/11 14:35:49;;;;;;;0.85;0.70;;;;;;;;;;5103574;27;20078;-74
2023/10/11 14:38:39;;;;;;;2.13;1.55;;;;;;;;;;5131880;27;20056;-74
2023/10/11 14:41:21;;;;;;;0.63;0.40;;;;;;;;;;5125108;27;20116;-74
2023/10/11 14:43:52;;;;;;;1.45;1.13;;;;;;;;;;5111898;27;20134;-74
2023/10/11 14:46:22;;;;;;;0.20;0.20;;;;;;;;;;5107565;27;20083;-74
2023/10/11 14:48:51;;;;;;;0.32;0.32;;;;;;;;;;5119720;27;20104;-74
2023/10/11 14:51:27;;;;;;;0.63;0.40;;;;;;;;;;5126309;27;20079;-74
2023/10/11 14:53:56;;;;;;;0.32;0.30;;;;;;;;;;5111939;27;20562;-75
2023/10/11 14:56:24;;;;;;;0.20;0.20;;;;;;;;;;5129405;27;20048;-74
2023/10/11 14:58:54;;;;;;;2.38;0.80;;;;;;;;;;5133990;27;20091;-75
2023/10/11 15:01:27;;;;;;;0.40;0.40;;;;;;;;;;5114852;27;20487;-74
2023/10/11 15:04:18;;;;;;;1.35;0.50;;;;;;;;;;5129063;27;20052;-74
2023/10/11 15:06:49;;;;;;;0.60;0.38;;;;;;;;;;5115279;27;20460;-74
2023/10/11 15:09:20;;;;;;;1.20;0.32;;;;;;;;;;5116904;27;20055;-75
2023/10/11 15:11:50;;;;;;;1.10;0.43;;;;;;;;;;5129430;27;20053;-75
2023/10/11 15:14:21;;;;;;;0.90;0.63;;;;;;;;;;5127253;27;20144;-75
2023/10/11 15:16:49;;;;;;;0.75;0.55;;;;;;;;;;5118062;27;20052;-75
2023/10/11 15:19:16;;;;;;;0.50;0.47;;;;;;;;;;5129361;27;20050;-74
2023/10/11 15:21:45;;;;;;;1.10;0.70;;;;;;;;;;5103244;27;20043;-75
2023/10/11 15:24:41;;;;;;;0.25;0.25;;;;;;;;;;5131783;27;20048;-74
2023/10/11 15:27:19;;;;;;;0.70;0.63;;;;;;;;;;5103968;27;20138;-74
2023/10/11 15:29:54;;;;;;;0.47;0.47;;;;;;;;;;5135675;27;20075;-74
2023/10/11 15:32:33;;;;;;;0.40;0.35;;;;;;;;;;5113480;27;20056;-74
2023/10/11 15:35:04;;;;;;;1.25;0.60;;;;;;;;;;5119621;27;20109;-74
2023/10/11 15:37:33;;;;;;;0.82;0.60;;;;;;;;;;5124141;27;20073;-74
2023/10/11 15:40:01;;;;;;;0.30;0.30;;;;;;;;;;5114509;27;20109;-74
2023/10/11 15:42:47;;;;;;;4.68;1.90;;;;;;;;;;5132854;27;20058;-74
2023/10/11 15:45:35;;;;;;;5.65;1.30;;;;;;;;;;5133007;27;20055;-74
2023/10/11 15:48:03;;;;;;;1.27;0.80;;;;;;;;;;5127354;27;20099;-74
2023/10/11 15:50:43;;;;;;;1.20;0.70;;;;;;;;;;5130173;27;20056;-74
2023/10/11 15:53:24;;;;;;;0.68;0.55;;;;;;;;;;5126228;27;20484;-74
2023/10/11 15:56:03;;;;;;;0.60;0.43;;;;;;;;;;5142459;27;20105;-74
2023/10/11 15:58:34;;;;;;;3.13;0.40;;;;;;;;;;5112553;27;20131;-74
2023/10/11 16:01:06;;;;;;;1.67;0.95;;;;;;;;;;5140745;27;20081;-74
2023/10/11 16:03:35;;;;;;;0.35;0.35;;;;;;;;;;5105462;27;20522;-75
2023/10/11 16:06:01;;;;;;;0.13;0.13;;;;;;;;;;5132160;27;20152;-75
2023/10/11 16:08:29;;;;;;;0.80;0.50;;;;;;;;;;5123967;27;20056;-74
2023/10/11 16:11:09;;;;;;;0.50;0.43;;;;;;;;;;5108460;27;20055;-75
2023/10/11 16:13:40;;;;;;;0.57;0.55;;;;;;;;;;5129818;27;20052;-75
2023/10/11 16:16:07;;;;;;;0.57;0.52;;;;;;;;;;5120782;27;20076;-75